Time;durP1;ratioP1;P1;durP2;ratioP2;P2;SDS_P1;SDS_P2;PMS_P1;PMS_P2;Temp;Humidity;BMP_temperature;BMP_pressure;BME280_temperature;BME280_humidity;BME280_pressure;Samples;Min_cycle;Max_cycle;Signal;HPM_P1;HPM_P2
2022/04/09 00:01:31;;;;;;;11.00;5.93;;;;;;;1.87;100.00;100563.22;5258182;28;20020;-85
2022/04/09 00:04:02;;;;;;;10.18;7.10;;;;;;;1.89;100.00;100574.47;5257849;28;20090;-85
2022/04/09 00:06:32;;;;;;;13.02;6.13;;;;;;;1.88;100.00;100561.38;5240455;28;20016;-84
2022/04/09 00:09:02;;;;;;;11.38;5.25;;;;;;;1.32;100.00;100474.81;5257729;28;20395;-84
2022/04/09 00:11:33;;;;;;;14.63;7.82;;;;;;;1.76;100.00;100553.19;5240438;28;20050;-85
2022/04/09 00:14:04;;;;;;;16.13;6.38;;;;;;;1.68;100.00;100543.59;5255942;28;20115;-85
2022/04/09 00:16:34;;;;;;;7.07;6.50;;;;;;;1.91;100.00;100591.06;5257230;28;20028;-85
2022/04/09 00:19:05;;;;;;;12.27;6.35;;;;;;;1.56;100.00;100533.75;5239600;28;20020;-84
2022/04/09 00:21:36;;;;;;;8.48;5.90;;;;;;;1.84;100.00;100574.28;5240161;28;20050;-86
2022/04/09 00:24:07;;;;;;;13.10;7.50;;;;;;;1.72;100.00;100565.28;5256875;28;20020;-85
2022/04/09 00:26:37;;;;;;;11.80;7.15;;;;;;;1.85;100.00;100569.75;5240011;28;20024;-84
2022/04/09 00:29:08;;;;;;;8.73;6.75;;;;;;;2.14;100.00;100608.47;5258881;28;20067;-85
2022/04/09 00:31:38;;;;;;;10.77;6.50;;;;;;;1.92;100.00;100579.41;5260035;28;20044;-86
2022/04/09 00:34:09;;;;;;;13.13;7.57;;;;;;;1.91;100.00;100587.59;5268428;28;20074;-86
2022/04/09 00:36:39;;;;;;;7.88;7.32;;;;;;;1.95;100.00;100600.28;5257618;28;20028;-85
2022/04/09 00:39:10;;;;;;;8.40;7.10;;;;;;;1.94;100.00;100592.50;5256899;28;20503;-85
2022/04/09 00:41:41;;;;;;;14.25;7.93;;;;;;;2.17;100.00;100632.03;5255361;28;20039;-84
2022/04/09 00:44:18;;;;;;;6.68;6.03;;;;;;;2.20;100.00;100636.94;5238898;28;20029;-84
2022/04/09 00:46:49;;;;;;;15.93;8.18;;;;;;;2.13;100.00;100630.78;5257178;28;20028;-84
2022/04/09 00:49:20;;;;;;;20.00;6.38;;;;;;;2.11;100.00;100630.19;5256654;28;20020;-85
2022/04/09 00:51:51;;;;;;;26.85;7.65;;;;;;;2.22;100.00;100650.88;5238121;28;20387;-84
2022/04/09 00:54:24;;;;;;;14.00;6.82;;;;;;;2.23;100.00;100655.19;5256424;28;20021;-84
2022/04/09 00:57:01;;;;;;;10.85;7.72;;;;;;;2.26;100.00;100657.44;5238195;28;20025;-84
2022/04/09 00:59:36;;;;;;;6.95;6.35;;;;;;;2.28;100.00;100663.38;5256238;28;20035;-85
2022/04/09 01:02:08;;;;;;;7.65;6.80;;;;;;;2.30;100.00;100671.97;5254700;28;20506;-85
2022/04/09 01:04:44;;;;;;;12.15;7.18;;;;;;;2.20;100.00;100663.56;5255890;28;20028;-85
2022/04/09 01:07:15;;;;;;;12.50;7.32;;;;;;;1.91;100.00;100628.34;5255732;28;20442;-85
2022/04/09 01:09:45;;;;;;;12.85;6.30;;;;;;;1.99;100.00;100652.13;5237864;28;20020;-84
2022/04/09 01:12:16;;;;;;;15.40;6.85;;;;;;;2.07;100.00;100666.22;5255882;28;20484;-84
2022/04/09 01:14:47;;;;;;;11.75;6.35;;;;;;;2.15;100.00;100688.16;5237700;28;20064;-84
2022/04/09 01:17:18;;;;;;;18.02;6.25;;;;;;;2.07;100.00;100695.53;5238811;28;20460;-84
2022/04/09 01:19:49;;;;;;;8.52;7.70;;;;;;;1.91;100.00;100678.13;5254977;28;20028;-83
2022/04/09 01:22:19;;;;;;;10.32;6.60;;;;;;;2.00;100.00;100715.00;5255486;28;20032;-85
2022/04/09 01:24:50;;;;;;;15.13;6.38;;;;;;;1.72;100.00;100698.38;5254926;28;20032;-85
2022/04/09 01:27:20;;;;;;;16.65;7.30;;;;;;;1.61;100.00;100683.00;5256432;28;20028;-85
2022/04/09 01:29:50;;;;;;;7.60;5.80;;;;;;;1.78;100.00;100728.66;5257960;28;20024;-84
2022/04/09 01:32:21;;;;;;;11.93;6.78;;;;;;;1.56;100.00;100717.38;5259633;28;20039;-84
2022/04/09 01:34:52;;;;;;;24.80;8.25;;;;;;;1.46;100.00;100730.22;5241787;28;20024;-84
2022/04/09 01:37:22;;;;;;;7.68;6.45;;;;;;;1.43;100.00;100741.28;5259469;28;20016;-84
2022/04/09 01:39:53;;;;;;;12.90;6.57;;;;;;;1.39;100.00;100748.84;5241575;28;20468;-85
2022/04/09 01:42:26;;;;;;;9.20;6.90;;;;;;;1.31;100.00;100744.50;5259609;28;20506;-84
2022/04/09 01:44:56;;;;;;;10.55;6.45;;;;;;;1.01;100.00;100713.88;5241073;28;20054;-87
2022/04/09 01:47:27;;;;;;;9.73;7.55;;;;;;;1.24;100.00;100764.94;5259212;28;20483;-84
2022/04/09 01:49:57;;;;;;;7.30;6.18;;;;;;;0.98;100.00;100733.69;5258626;28;20025;-84
2022/04/09 01:52:28;;;;;;;8.18;6.63;;;;;;;1.18;100.00;100776.34;5258813;28;20043;-83
2022/04/09 01:54:58;;;;;;;9.95;7.88;;;;;;;1.14;100.00;100783.09;5259339;28;20130;-84
2022/04/09 01:57:28;;;;;;;19.48;7.32;;;;;;;0.99;100.00;100767.25;5259302;28;20476;-84
2022/04/09 01:59:59;;;;;;;10.00;7.28;;;;;;;0.87;100.00;100752.84;5259029;28;20060;-84
2022/04/09 02:02:29;;;;;;;10.95;6.95;;;;;;;0.80;100.00;100754.66;5241179;28;20058;-85
2022/04/09 02:05:00;;;;;;;7.35;6.47;;;;;;;0.67;100.00;100738.63;5258912;28;20494;-84
2022/04/09 02:07:31;;;;;;;10.95;6.35;;;;;;;0.89;100.00;100780.06;5258781;28;20029;-84
2022/04/09 02:10:03;;;;;;;14.52;9.85;;;;;;;0.76;100.00;100768.53;5259110;28;20096;-84
2022/04/09 02:12:35;;;;;;;16.15;8.10;;;;;;;0.59;100.00;100746.72;5240823;28;20027;-84
2022/04/09 02:15:13;;;;;;;11.65;6.00;;;;;;;0.82;100.00;100789.03;5258762;28;20103;-84
2022/04/09 02:17:44;;;;;;;14.38;7.50;;;;;;;0.68;100.00;100770.31;5257209;28;20128;-83
2022/04/09 02:20:15;;;;;;;7.65;6.25;;;;;;;0.83;100.00;100807.44;5240542;28;20484;-85
2022/04/09 02:22:46;;;;;;;8.10;7.40;;;;;;;0.67;100.00;100781.97;5259278;28;20028;-84
2022/04/09 02:25:18;;;;;;;7.20;6.43;;;;;;;0.68;100.00;100804.03;5258305;28;20448;-84
2022/04/09 02:27:48;;;;;;;9.40;6.80;;;;;;;0.68;100.00;100810.19;5258710;28;20240;-83
2022/04/09 02:30:19;;;;;;;14.38;7.47;;;;;;;0.63;100.00;100811.78;5257923;28;20035;-86
2022/04/09 02:32:52;;;;;;;13.73;6.80;;;;;;;0.63;100.00;100819.75;5257712;28;20028;-85
2022/04/09 02:35:23;;;;;;;23.02;7.82;;;;;;;0.58;100.00;100809.69;5257475;28;20029;-84
2022/04/09 02:37:54;;;;;;;13.05;6.85;;;;;;;0.37;100.00;100790.28;5257738;28;20024;-84
2022/04/09 02:40:24;;;;;;;12.18;6.88;;;;;;;0.53;100.00;100821.94;5257295;28;20051;-83
2022/04/09 02:42:56;;;;;;;15.60;7.82;;;;;;;0.37;100.00;100823.00;5257488;28;20500;-83
2022/04/09 02:45:27;;;;;;;15.55;9.27;;;;;;;0.53;100.00;100833.38;5257734;28;20020;-84
2022/04/09 02:47:57;;;;;;;15.25;7.95;;;;;;;0.36;100.00;100805.41;5257702;28;20078;-84
2022/04/09 02:50:27;;;;;;;13.80;7.75;;;;;;;0.59;100.00;100837.06;5239582;28;20035;-83
2022/04/09 02:52:58;;;;;;;12.88;7.63;;;;;;;0.40;100.00;100817.31;5257496;28;20075;-85
2022/04/09 02:55:29;;;;;;;12.88;6.78;;;;;;;0.60;100.00;100847.50;5258764;28;20073;-85
2022/04/09 02:58:00;;;;;;;16.08;9.38;;;;;;;0.46;100.00;100816.53;5259315;28;20025;-84
2022/04/09 03:00:30;;;;;;;15.23;6.70;;;;;;;0.68;100.00;100847.38;5240940;28;20024;-85
2022/04/09 03:03:01;;;;;;;8.10;6.32;;;;;;;0.76;100.00;100854.41;5256510;28;20027;-84
2022/04/09 03:05:31;;;;;;;10.98;6.75;;;;;;;0.86;100.00;100848.78;5255013;28;20077;-83
2022/04/09 03:08:02;;;;;;;12.70;7.60;;;;;;;0.91;100.00;100857.78;5256252;28;20055;-83
2022/04/09 03:10:32;;;;;;;5.38;4.97;;;;;;;1.04;100.00;100866.91;5256073;28;20082;-84
2022/04/09 03:13:04;;;;;;;7.03;6.53;;;;;;;0.79;100.00;100831.94;5256609;28;20016;-85
2022/04/09 03:15:34;;;;;;;10.07;8.07;;;;;;;0.99;100.00;100876.28;5255685;28;20020;-84
2022/04/09 03:18:08;;;;;;;9.02;7.47;;;;;;;0.55;100.00;100809.28;5237866;28;20028;-83
2022/04/09 03:20:38;;;;;;;7.32;6.63;;;;;;;0.91;100.00;100862.28;5237516;28;20029;-84
2022/04/09 03:23:08;;;;;;;22.77;7.85;;;;;;;0.93;100.00;100878.88;5255097;28;20025;-83
2022/04/09 03:25:39;;;;;;;10.82;7.65;;;;;;;0.92;100.00;100880.72;5255164;28;20392;-84
2022/04/09 03:28:09;;;;;;;13.45;6.30;;;;;;;0.89;100.00;100885.56;5254917;28;20391;-84
2022/04/09 03:30:42;;;;;;;15.82;8.10;;;;;;;0.49;100.00;100831.28;5236542;28;20020;-85
2022/04/09 03:33:12;;;;;;;14.38;8.23;;;;;;;0.51;100.00;100842.53;5254088;28;20031;-85
2022/04/09 03:35:43;;;;;;;22.50;7.40;;;;;;;0.82;100.00;100895.34;5254256;28;20099;-85
2022/04/09 03:38:14;;;;;;;11.18;5.82;;;;;;;0.62;100.00;100884.53;5255657;28;20020;-82
2022/04/09 03:40:45;;;;;;;11.20;6.65;;;;;;;0.77;100.00;100905.75;5240829;28;20503;-84
2022/04/09 03:43:15;;;;;;;11.52;7.28;;;;;;;0.63;100.00;100902.94;5258560;28;20769;-85
2022/04/09 03:45:46;;;;;;;10.10;6.25;;;;;;;0.67;100.00;100916.69;5256896;28;20020;-85
2022/04/09 03:48:17;;;;;;;14.40;6.82;;;;;;;0.70;100.00;100926.94;5256670;28;20025;-84
2022/04/09 03:50:47;;;;;;;12.00;6.68;;;;;;;0.59;100.00;100928.25;5256836;28;20044;-86
2022/04/09 03:53:20;;;;;;;15.07;9.18;;;;;;;0.70;100.00;100923.44;5239934;28;20028;-85
2022/04/09 03:55:50;;;;;;;16.02;6.93;;;;;;;0.72;100.00;100934.72;5239827;28;20024;-85
2022/04/09 03:58:22;;;;;;;7.50;6.05;;;;;;;0.49;100.00;100898.53;5239155;28;20013;-85
2022/04/09 04:00:53;;;;;;;19.20;8.27;;;;;;;0.77;100.00;100937.63;5258347;28;20050;-86
2022/04/09 04:03:25;;;;;;;10.32;7.22;;;;;;;0.68;100.00;100927.13;5256066;28;20046;-85
2022/04/09 04:05:55;;;;;;;14.95;8.38;;;;;;;0.84;100.00;100957.97;5239644;28;20020;-85
2022/04/09 04:08:26;;;;;;;9.52;7.32;;;;;;;0.58;100.00;100908.00;5256971;28;20031;-85
2022/04/09 04:10:56;;;;;;;9.52;7.97;;;;;;;0.68;100.00;100932.44;5258146;28;20032;-86
2022/04/09 04:13:27;;;;;;;10.55;6.45;;;;;;;0.65;100.00;100924.00;5257838;28;20119;-87
2022/04/09 04:15:57;;;;;;;8.25;7.10;;;;;;;0.82;100.00;100949.34;5257920;28;20085;-85
2022/04/09 04:18:27;;;;;;;12.95;7.10;;;;;;;0.86;100.00;100950.63;5257814;28;20031;-85
2022/04/09 04:20:58;;;;;;;16.40;7.82;;;;;;;0.94;100.00;100963.75;5239888;28;20089;-85
2022/04/09 04:23:28;;;;;;;15.90;8.40;;;;;;;0.58;100.00;100915.97;5257406;28;20038;-84
2022/04/09 04:25:59;;;;;;;12.18;8.70;;;;;;;0.97;100.00;100981.16;5257599;28;20021;-85
2022/04/09 04:28:29;;;;;;;15.57;7.47;;;;;;;0.66;100.00;100929.13;5257346;28;20025;-86
2022/04/09 04:31:00;;;;;;;20.63;9.75;;;;;;;0.72;100.00;100961.28;5257542;28;20027;-85
2022/04/09 04:33:32;;;;;;;9.48;8.73;;;;;;;0.43;100.00;100917.06;5239285;28;20025;-85
2022/04/09 04:36:02;;;;;;;10.45;9.52;;;;;;;0.70;100.00;100950.84;5257273;28;20066;-85
2022/04/09 04:38:33;;;;;;;18.00;9.10;;;;;;;0.90;100.00;101004.19;5257365;28;20017;-85
2022/04/09 04:41:04;;;;;;;16.67;8.15;;;;;;;0.92;100.00;101003.00;5257919;28;20105;-84
2022/04/09 04:43:35;;;;;;;9.82;9.00;;;;;;;0.63;100.00;100961.41;5278745;22;20020;-81
2022/04/09 04:46:05;;;;;;;10.15;9.18;;;;;;;0.52;100.00;100931.88;5243552;28;20036;-82
2022/04/09 04:48:36;;;;;;;20.23;9.35;;;;;;;1.16;100.00;101017.75;5232642;28;20032;-82
2022/04/09 04:51:06;;;;;;;19.60;8.05;;;;;;;1.29;100.00;101019.72;5231744;28;20033;-82
2022/04/09 04:53:36;;;;;;;13.18;9.23;;;;;;;1.31;100.00;101028.34;5232252;28;20023;-81
2022/04/09 04:56:07;;;;;;;18.13;9.85;;;;;;;1.14;100.00;100997.72;5232448;28;20025;-81
2022/04/09 04:58:37;;;;;;;16.90;8.95;;;;;;;1.33;100.00;101021.00;5229728;28;20155;-82
2022/04/09 05:01:08;;;;;;;11.88;9.07;;;;;;;1.25;100.00;101007.81;5246735;28;20028;-82
2022/04/09 05:03:39;;;;;;;14.05;9.15;;;;;;;1.49;100.00;101035.84;5244862;28;20078;-81
2022/04/09 05:06:10;;;;;;;20.25;9.18;;;;;;;1.58;100.00;101040.84;5227732;28;20028;-81
2022/04/09 05:08:40;;;;;;;8.77;7.78;;;;;;;1.62;100.00;101030.63;5227147;28;20017;-82
2022/04/09 05:11:10;;;;;;;14.63;9.13;;;;;;;1.70;100.00;101046.47;5226854;28;20394;-82
2022/04/09 05:13:41;;;;;;;12.93;9.95;;;;;;;1.73;100.00;101056.75;5227099;28;20382;-82
2022/04/09 05:16:11;;;;;;;9.40;6.65;;;;;;;1.25;100.00;100979.38;5242303;28;20025;-82
2022/04/09 05:18:42;;;;;;;8.45;7.85;;;;;;;1.50;100.00;101032.16;5227247;28;20021;-81
2022/04/09 05:21:12;;;;;;;10.73;7.93;;;;;;;1.67;100.00;101065.50;5227189;28;20079;-85
2022/04/09 05:23:42;;;;;;;12.05;8.20;;;;;;;1.68;100.00;101067.97;5226801;28;20059;-83
2022/04/09 05:26:13;;;;;;;10.48;6.60;;;;;;;1.71;100.00;101074.75;5226083;28;20029;-83
2022/04/09 05:28:43;;;;;;;11.18;9.27;;;;;;;1.78;100.00;101078.25;5227087;28;20017;-80
2022/04/09 05:31:14;;;;;;;14.75;10.00;;;;;;;1.85;100.00;101084.47;5225742;28;20059;-81
2022/04/09 05:33:44;;;;;;;9.25;7.22;;;;;;;1.92;100.00;101074.69;5227892;28;20101;-80
2022/04/09 05:36:14;;;;;;;20.75;8.75;;;;;;;1.94;100.00;101079.81;5227041;28;20021;-81
2022/04/09 05:38:45;;;;;;;8.52;6.47;;;;;;;1.70;100.00;101054.47;5226631;28;20043;-81
2022/04/09 05:41:15;;;;;;;6.80;6.18;;;;;;;1.91;100.00;101099.69;5228332;28;20021;-81
2022/04/09 05:43:46;;;;;;;8.15;7.45;;;;;;;1.38;100.00;101045.19;5243948;28;20060;-81
2022/04/09 05:46:16;;;;;;;23.25;7.93;;;;;;;1.82;100.00;101090.19;5228962;28;20025;-81
2022/04/09 05:48:46;;;;;;;8.10;7.38;;;;;;;2.04;100.00;101115.75;5243174;28;20025;-80
2022/04/09 05:51:17;;;;;;;12.32;9.13;;;;;;;2.00;100.00;101095.03;5226715;28;20378;-81
2022/04/09 05:53:47;;;;;;;21.92;9.45;;;;;;;2.14;100.00;101115.41;5226743;28;20051;-80
2022/04/09 05:56:17;;;;;;;12.48;7.47;;;;;;;2.09;100.00;101117.00;5227399;28;20472;-80
2022/04/09 05:58:48;;;;;;;13.18;8.80;;;;;;;2.11;100.00;101138.94;5227222;28;20017;-80
2022/04/09 06:01:18;;;;;;;15.80;11.48;;;;;;;1.85;100.00;101105.78;5227567;28;20036;-81
2022/04/09 06:03:49;;;;;;;19.00;9.68;;;;;;;1.80;100.00;101105.53;5227675;28;20031;-80
2022/04/09 06:06:19;;;;;;;13.20;10.23;;;;;;;1.95;100.00;101138.22;5230250;28;20508;-80
2022/04/09 06:08:50;;;;;;;11.30;8.32;;;;;;;1.97;100.00;101135.38;5227933;28;20013;-81
2022/04/09 06:11:21;;;;;;;13.88;10.25;;;;;;;1.88;100.00;101117.88;5242524;28;20033;-81
2022/04/09 06:13:54;;;;;;;20.77;10.32;;;;;;;1.97;100.00;101138.03;5228684;28;20037;-81
2022/04/09 06:16:25;;;;;;;17.80;11.70;;;;;;;2.02;100.00;101143.63;5230878;28;20408;-81
2022/04/09 06:18:55;;;;;;;13.70;10.50;;;;;;;2.09;100.00;101148.97;5229646;28;20476;-81
2022/04/09 06:21:29;;;;;;;9.75;8.82;;;;;;;2.12;100.00;101151.25;5231552;28;20473;-81
2022/04/09 06:24:00;;;;;;;16.58;9.30;;;;;;;2.22;100.00;101149.91;5230713;28;20024;-80
2022/04/09 06:26:30;;;;;;;8.68;8.07;;;;;;;2.34;100.00;101147.50;5230552;28;20048;-79
2022/04/09 06:29:01;;;;;;;13.13;9.80;;;;;;;2.43;100.00;101151.69;5230531;28;20025;-81
2022/04/09 06:31:31;;;;;;;14.68;9.82;;;;;;;2.54;100.00;101126.31;5233512;28;20032;-82
2022/04/09 06:34:01;;;;;;;11.93;9.15;;;;;;;2.89;100.00;101151.09;5236640;28;20033;-80
2022/04/09 06:36:32;;;;;;;8.05;7.25;;;;;;;3.02;100.00;101148.50;5238190;28;20474;-82
2022/04/09 06:39:02;;;;;;;15.15;8.82;;;;;;;3.19;100.00;101162.28;5232507;28;20070;-80
2022/04/09 06:41:33;;;;;;;12.73;8.95;;;;;;;3.00;100.00;101145.19;5233713;28;20064;-80
2022/04/09 06:44:05;;;;;;;21.70;8.82;;;;;;;3.11;100.00;101168.66;5232459;28;20028;-80
2022/04/09 06:46:36;;;;;;;16.50;8.65;;;;;;;2.89;100.00;101140.41;5231259;28;20057;-80
2022/04/09 06:49:06;;;;;;;12.55;7.82;;;;;;;2.99;100.00;101157.72;5228915;28;20458;-81
2022/04/09 06:51:36;;;;;;;9.80;8.25;;;;;;;3.07;100.00;101170.06;5229244;28;20495;-81
2022/04/09 06:54:07;;;;;;;15.60;9.40;;;;;;;2.79;100.00;101122.13;5229599;28;20088;-81
2022/04/09 06:56:37;;;;;;;13.77;7.70;;;;;;;2.98;100.00;101148.06;5228089;28;20036;-80
2022/04/09 06:59:08;;;;;;;15.88;7.78;;;;;;;3.25;100.00;101182.84;5228901;28;20544;-83
2022/04/09 07:01:38;;;;;;;11.63;8.02;;;;;;;3.19;100.00;101168.44;5228929;28;20017;-81
2022/04/09 07:04:08;;;;;;;22.25;8.98;;;;;;;3.29;100.00;101184.91;5228434;28;20028;-81
2022/04/09 07:06:39;;;;;;;23.30;9.15;;;;;;;3.30;100.00;101181.22;5234907;28;20029;-79
2022/04/09 07:09:10;;;;;;;13.32;8.30;;;;;;;3.33;100.00;101178.16;5232979;28;20021;-79
2022/04/09 07:11:40;;;;;;;7.63;6.90;;;;;;;3.58;100.00;101194.44;5234299;28;20154;-79
2022/04/09 07:14:10;;;;;;;13.25;7.70;;;;;;;3.43;100.00;101167.13;5233640;28;20021;-80
2022/04/09 07:16:43;;;;;;;13.45;8.45;;;;;;;3.66;100.00;101190.78;5235292;28;20029;-82
2022/04/09 07:19:14;;;;;;;21.48;9.02;;;;;;;3.79;100.00;101193.47;5233152;28;20028;-79
2022/04/09 07:21:44;;;;;;;27.33;9.30;;;;;;;3.86;100.00;101186.28;5235502;28;20471;-80
2022/04/09 07:24:14;;;;;;;10.52;6.03;;;;;;;4.11;100.00;101212.41;5234906;28;20481;-80
2022/04/09 07:26:45;;;;;;;8.70;7.40;;;;;;;4.20;100.00;101213.84;5234567;28;20074;-79
2022/04/09 07:29:16;;;;;;;16.17;8.13;;;;;;;4.08;100.00;101178.88;5234812;28;20085;-84
2022/04/09 07:31:47;;;;;;;11.95;6.60;;;;;;;4.28;100.00;101194.94;5235230;28;20083;-80
2022/04/09 07:34:17;;;;;;;13.55;8.10;;;;;;;4.50;100.00;101220.44;5234963;28;20434;-79
2022/04/09 07:36:48;;;;;;;7.88;6.35;;;;;;;4.62;100.00;101220.63;5234049;28;20126;-81
2022/04/09 07:39:18;;;;;;;11.73;6.75;;;;;;;4.75;100.00;101224.09;5234629;28;20028;-84
2022/04/09 07:41:48;;;;;;;10.30;6.82;;;;;;;4.87;100.00;101218.94;5233410;28;20021;-81
2022/04/09 07:44:19;;;;;;;9.18;6.60;;;;;;;4.70;100.00;101174.91;5240509;28;20044;-83
2022/04/09 07:46:50;;;;;;;20.48;8.50;;;;;;;5.19;100.00;101229.75;5246622;28;20473;-79
2022/04/09 07:49:20;;;;;;;15.93;7.65;;;;;;;5.11;100.00;101189.81;5246595;28;20048;-83
2022/04/09 07:51:51;;;;;;;15.05;6.53;;;;;;;5.13;100.00;101183.22;5250188;28;20009;-83
2022/04/09 07:54:22;;;;;;;9.77;6.93;;;;;;;5.61;100.00;101231.00;5248064;28;20029;-86
2022/04/09 07:56:53;;;;;;;21.45;7.40;;;;;;;5.81;100.00;101230.88;5242833;28;20093;-85
2022/04/09 07:59:23;;;;;;;10.07;6.78;;;;;;;5.99;100.00;101241.72;5242401;28;20017;-81
2022/04/09 08:01:54;;;;;;;11.13;6.13;;;;;;;6.26;100.00;101237.81;5247344;28;20093;-86
2022/04/09 08:04:24;;;;;;;6.57;4.82;;;;;;;6.44;100.00;101220.94;5245671;28;20044;-80
2022/04/09 08:06:57;;;;;;;6.22;5.32;;;;;;;6.56;100.00;101208.47;5242378;28;20092;-80
2022/04/09 08:09:28;;;;;;;7.72;5.72;;;;;;;6.85;100.00;101244.53;5244652;28;20017;-82
2022/04/09 08:11:58;;;;;;;10.52;5.25;;;;;;;7.00;100.00;101249.50;5240945;28;20086;-84
2022/04/09 08:14:30;;;;;;;8.95;5.45;;;;;;;7.26;100.00;101251.91;5251484;28;20029;-83
2022/04/09 08:17:01;;;;;;;6.10;4.20;;;;;;;7.41;100.00;101241.63;5236444;28;20032;-85
2022/04/09 08:19:31;;;;;;;10.77;5.32;;;;;;;7.82;100.00;101258.03;5236427;28;20025;-86
2022/04/09 08:22:08;;;;;;;11.82;5.22;;;;;;;7.96;100.00;101213.78;5234066;28;20032;-82
2022/04/09 08:24:40;;;;;;;7.00;4.30;;;;;;;8.28;100.00;101219.69;5233608;28;20036;-82
2022/04/09 08:27:11;;;;;;;13.80;7.28;;;;;;;8.24;100.00;101261.56;5234157;28;20511;-83
2022/04/09 08:29:42;;;;;;;14.27;6.03;;;;;;;8.14;100.00;101262.09;5233311;28;20013;-84
2022/04/09 08:32:13;;;;;;;7.78;3.90;;;;;;;8.11;100.00;101268.75;5235386;28;20021;-83
2022/04/09 08:34:44;;;;;;;6.05;5.53;;;;;;;8.53;100.00;101271.47;5235563;28;20063;-83
2022/04/09 08:37:14;;;;;;;5.65;4.20;;;;;;;8.77;100.00;101269.59;5235776;28;20029;-86
2022/04/09 08:39:45;;;;;;;4.93;4.22;;;;;;;8.66;100.00;101227.38;5236059;28;20025;-85
2022/04/09 08:42:15;;;;;;;14.05;10.55;;;;;;;8.79;100.00;101201.00;5235504;28;20503;-83
2022/04/09 08:44:46;;;;;;;4.85;4.45;;;;;;;9.65;100.00;101276.63;5234667;28;20037;-83
2022/04/09 08:47:16;;;;;;;4.75;4.45;;;;;;;9.61;100.00;101265.50;5234651;28;20017;-83
2022/04/09 08:49:48;;;;;;;5.93;3.58;;;;;;;9.31;100.00;101235.22;5235824;28;20021;-84
2022/04/09 08:52:18;;;;;;;5.40;4.88;;;;;;;9.59;100.00;101285.66;5237357;28;20068;-80
2022/04/09 08:54:48;;;;;;;11.45;4.15;;;;;;;9.54;100.00;101258.59;5235316;28;20040;-83
2022/04/09 08:57:20;;;;;;;4.25;3.95;;;;;;;9.74;100.00;101286.78;5235680;28;20032;-81
2022/04/09 08:59:52;;;;;;;3.80;3.35;;;;;;;9.68;100.00;101281.53;5236469;28;20028;-80
2022/04/09 09:02:23;;;;;;;5.68;3.55;;;;;;;9.66;100.00;101270.16;5245174;28;20024;-82
2022/04/09 09:04:53;;;;;;;10.10;4.70;;;;;;;9.70;100.00;101288.34;5253918;28;20396;-82
2022/04/09 09:07:24;;;;;;;3.63;3.42;;;;;;;9.23;100.00;101268.78;5244557;28;20303;-82
2022/04/09 09:10:13;;;;;;;4.70;3.72;;;;;;;9.67;100.00;101291.50;5235521;28;20112;-81
2022/04/09 09:12:55;;;;;;;3.55;3.38;;;;;;;9.54;100.00;101259.41;5235550;28;20059;-81
2022/04/09 09:15:26;;;;;;;7.80;4.35;;;;;;;9.60;100.00;101287.28;5235101;28;20033;-81
2022/04/09 09:18:00;;;;;;;10.13;5.05;;;;;;;9.50;100.00;101301.41;5234543;28;20128;-84
2022/04/09 09:20:30;;;;;;;14.80;4.72;;;;;;;9.53;100.00;101300.13;5235383;28;20069;-81
2022/04/09 09:23:00;;;;;;;4.35;3.95;;;;;;;9.71;100.00;101289.97;5236368;28;20496;-81
2022/04/09 09:25:31;;;;;;;3.47;3.25;;;;;;;10.12;100.00;101298.81;5235927;28;20055;-82
2022/04/09 09:28:02;;;;;;;14.90;5.00;;;;;;;10.22;100.00;101307.13;5236080;28;20551;-80
2022/04/09 09:30:48;;;;;;;5.13;3.75;;;;;;;10.09;95.53;101286.66;5235412;28;20465;-79
2022/04/09 09:33:20;;;;;;;7.97;5.03;;;;;;;10.10;98.25;101309.06;5234700;28;20033;-81
2022/04/09 09:36:00;;;;;;;5.90;4.15;;;;;;;10.40;91.67;101325.81;5234459;28;20029;-79
2022/04/09 09:38:34;;;;;;;5.13;4.70;;;;;;;10.40;93.82;101263.72;5236093;28;20051;-80
2022/04/09 09:41:20;;;;;;;5.15;3.75;;;;;;;11.15;98.26;101324.59;5233962;28;20028;-84
2022/04/09 09:44:24;;;;;;;4.82;4.43;;;;;;;8.75;88.99;101016.72;5234802;28;20493;-79
2022/04/09 09:47:41;;;;;;;3.90;3.55;;;;;;;10.13;89.35;101316.66;5208596;28;20048;-78
2022/04/09 09:50:13;;;;;;;6.80;2.90;;;;;;;10.02;84.07;101329.16;5216410;28;20056;-82
2022/04/09 09:52:43;;;;;;;4.38;3.95;;;;;;;9.86;82.95;101297.53;5234773;28;20072;-81
2022/04/09 09:55:15;;;;;;;3.42;3.13;;;;;;;10.24;90.23;101312.28;5234769;28;20079;-80
2022/04/09 09:57:52;;;;;;;7.57;3.33;;;;;;;10.68;85.19;101289.81;5234964;28;20377;-80
2022/04/09 10:00:24;;;;;;;2.72;2.63;;;;;;;11.35;86.31;101316.75;5233877;28;20020;-80
2022/04/09 10:02:55;;;;;;;3.85;3.55;;;;;;;11.71;82.70;101314.50;5232814;28;20032;-79
2022/04/09 10:05:27;;;;;;;3.30;2.92;;;;;;;11.91;82.42;101335.59;5233845;28;20017;-80
2022/04/09 10:07:59;;;;;;;2.90;2.70;;;;;;;11.58;77.70;101309.47;5234374;28;20025;-81
2022/04/09 10:10:30;;;;;;;3.88;3.05;;;;;;;11.41;75.58;101291.44;5250669;28;20495;-81
2022/04/09 10:13:02;;;;;;;2.83;2.50;;;;;;;11.73;72.97;101331.31;5235734;28;20556;-81
2022/04/09 10:15:33;;;;;;;5.13;2.80;;;;;;;11.88;76.11;101317.97;5232569;28;20031;-78
2022/04/09 10:18:07;;;;;;;5.93;3.63;;;;;;;11.99;72.32;101310.81;5233853;28;20493;-81
2022/04/09 10:20:37;;;;;;;3.08;2.88;;;;;;;11.88;73.81;101307.16;5232886;28;20021;-81
2022/04/09 10:23:09;;;;;;;3.85;2.40;;;;;;;11.44;72.97;101326.09;5234445;28;20021;-80
2022/04/09 10:25:43;;;;;;;7.03;2.63;;;;;;;11.27;70.58;101328.00;5236193;28;20029;-86
2022/04/09 10:28:30;;;;;;;6.85;1.92;;;;;;;10.87;70.53;101339.03;5237451;28;20040;-80
2022/04/09 10:31:01;;;;;;;2.65;2.42;;;;;;;10.19;72.18;101304.91;5237702;28;20029;-81
2022/04/09 10:33:34;;;;;;;2.67;2.58;;;;;;;10.01;68.88;101340.19;5237148;28;20048;-81
2022/04/09 10:36:05;;;;;;;2.17;1.98;;;;;;;9.74;70.45;101338.03;5237582;28;20029;-80
2022/04/09 10:38:39;;;;;;;5.75;3.33;;;;;;;9.72;70.56;101339.34;5237704;28;20025;-80
2022/04/09 10:41:09;;;;;;;3.40;2.33;;;;;;;9.92;75.32;101337.03;5237988;28;20023;-80
2022/04/09 10:46:19;;;;;;;4.82;3.22;;;;;;;10.02;73.43;101298.66;5235060;28;20041;-86
2022/04/09 10:48:49;;;;;;;3.53;2.53;;;;;;;10.22;70.82;101300.91;5253990;28;20082;-84
2022/04/09 10:51:21;;;;;;;4.93;2.72;;;;;;;10.05;66.97;101319.75;5238625;28;20025;-84
2022/04/09 10:53:52;;;;;;;4.35;2.72;;;;;;;9.72;68.48;101340.16;5239407;28;20025;-86
2022/04/09 10:56:29;;;;;;;3.83;2.60;;;;;;;10.04;70.33;101332.44;5240121;28;20028;-84
2022/04/09 10:59:06;;;;;;;3.35;2.60;;;;;;;10.25;69.47;101333.66;5242275;28;20021;-84
2022/04/09 11:01:46;;;;;;;2.45;2.25;;;;;;;10.28;68.51;101322.38;5249163;28;20032;-84
2022/04/09 11:04:29;;;;;;;11.55;2.55;;;;;;;10.49;65.43;101340.56;5257070;28;20040;-85
2022/04/09 11:07:16;;;;;;;3.05;2.85;;;;;;;10.35;64.84;101289.84;5259161;28;20039;-84
2022/04/09 11:09:56;;;;;;;4.93;2.05;;;;;;;10.56;63.38;101282.88;5242323;28;20025;-86
2022/04/09 11:12:28;;;;;;;2.20;2.10;;;;;;;10.88;63.44;101313.66;5243805;28;20047;-86
2022/04/09 11:15:02;;;;;;;2.33;2.15;;;;;;;10.75;65.84;101258.06;5240852;28;20029;-84
2022/04/09 11:17:47;;;;;;;2.35;2.22;;;;;;;11.42;62.28;101324.69;5239945;28;20043;-85
2022/04/09 11:20:22;;;;;;;3.45;1.55;;;;;;;11.58;63.61;101341.94;5240758;28;20028;-86
2022/04/09 11:22:55;;;;;;;9.00;3.67;;;;;;;11.20;62.36;101242.75;5241139;28;20052;-85
2022/04/09 11:25:27;;;;;;;4.03;2.58;;;;;;;11.80;60.01;101326.56;5254988;28;20099;-86
2022/04/09 11:28:17;;;;;;;1.65;1.55;;;;;;;11.57;58.14;101314.06;5240742;28;20028;-85
2022/04/09 11:30:54;;;;;;;2.45;2.35;;;;;;;11.97;59.63;101330.00;5238488;28;20029;-85
2022/04/09 11:33:25;;;;;;;2.13;1.95;;;;;;;11.69;57.76;101349.13;5240924;28;20021;-84
2022/04/09 11:36:00;;;;;;;2.80;2.08;;;;;;;11.23;58.23;101290.91;5240944;28;20029;-84
2022/04/09 11:38:31;;;;;;;2.63;2.42;;;;;;;11.81;60.97;101353.38;5254431;28;20067;-85
2022/04/09 11:41:18;;;;;;;4.25;2.85;;;;;;;12.32;63.12;101331.44;5239800;28;20065;-85
2022/04/09 11:43:50;;;;;;;2.83;2.25;;;;;;;12.44;59.86;101330.19;5236711;28;20025;-86
2022/04/09 11:46:21;;;;;;;7.20;2.35;;;;;;;12.78;62.53;101333.47;5238834;28;20029;-85